Junction, Texas
Current Conditions -  °F | °C
As of 8:51 PM on Monday 20 Oct 2014 (Local Time) from KJCT Reporting Station
Clear Clear  
Wind Chill: 68°   Ceiling: Unl
Heat Index: 68°   Visibility: 10mi
Dew Point: 55°   Wind: 5mph
Humidity: 63%   Direction: 80°E
Pressure: 30.04"   Gusts: NA
Location:  30.49°N, 99.77°W
Report Text: KJCT 210151Z AUTO 08004KT 10SM CLR 20/13 A3004 RMK AO2 SLP148 T02000128
Loading
Personal Weather Stations






























Interactive Weather Map New forecast layout! Learn more

10-Day Weather Forecast

Advertisements
Track Severe Weather on mobile